createdAt,value
2018-03-08T00:01:14.784Z,1.97
2018-03-08T00:03:42.330Z,1.97
2018-03-08T00:06:09.784Z,1.96
2018-03-08T00:08:37.377Z,2.06
2018-03-08T00:11:04.922Z,2.02
2018-03-08T00:13:32.386Z,1.99
2018-03-08T00:15:59.942Z,2.00
2018-03-08T00:18:27.493Z,2.05
2018-03-08T00:20:54.961Z,2.07
2018-03-08T00:23:22.520Z,2.03
2018-03-08T00:25:49.989Z,1.96
2018-03-08T00:28:17.532Z,1.89
2018-03-08T00:30:45.018Z,1.92
2018-03-08T00:33:12.544Z,1.84
2018-03-08T00:35:40.043Z,2.04
2018-03-08T00:38:07.553Z,2.00
2018-03-08T00:40:35.112Z,2.06
2018-03-08T00:43:02.555Z,2.08
2018-03-08T00:45:30.013Z,1.96
2018-03-08T00:47:57.457Z,1.92
2018-03-08T00:50:24.922Z,2.04
2018-03-08T00:52:53.266Z,1.99
2018-03-08T00:55:20.724Z,2.08
2018-03-08T00:57:48.168Z,2.04
2018-03-08T01:00:15.645Z,1.96
2018-03-08T01:02:43.159Z,1.95
2018-03-08T01:05:10.709Z,2.01
2018-03-08T01:07:38.169Z,2.02
2018-03-08T01:10:05.645Z,2.26
2018-03-08T01:12:33.114Z,1.97
2018-03-08T01:15:01.570Z,1.86
2018-03-08T01:17:29.050Z,1.77
2018-03-08T01:19:56.525Z,1.80
2018-03-08T01:22:23.968Z,2.01
2018-03-08T01:24:51.546Z,2.01
2018-03-08T01:27:18.996Z,1.92
2018-03-08T01:29:46.457Z,1.84
2018-03-08T01:32:13.965Z,1.61
2018-03-08T01:34:41.420Z,1.77
2018-03-08T01:37:08.873Z,1.86
2018-03-08T01:39:36.356Z,1.82
2018-03-08T01:42:03.894Z,1.81
2018-03-08T01:44:31.447Z,1.82
2018-03-08T01:46:58.903Z,1.91
2018-03-08T01:49:26.365Z,1.98
2018-03-08T01:54:48.003Z,1.89
2018-03-08T01:57:15.452Z,1.86
2018-03-08T01:59:42.925Z,1.88
2018-03-08T02:02:10.509Z,1.95
2018-03-08T02:04:37.972Z,1.99
2018-03-08T02:07:05.421Z,2.03
2018-03-08T02:09:33.074Z,1.92
2018-03-08T02:12:00.729Z,1.98
2018-03-08T02:14:28.274Z,2.01
2018-03-08T02:16:55.825Z,1.90
2018-03-08T02:19:23.273Z,1.92
2018-03-08T02:21:50.738Z,1.93
2018-03-08T02:24:18.180Z,1.90
2018-03-08T02:26:45.658Z,2.02
2018-03-08T02:29:13.114Z,2.09
2018-03-08T02:31:40.683Z,2.06
2018-03-08T02:34:08.237Z,1.98
2018-03-08T02:36:36.718Z,2.04
2018-03-08T02:39:04.176Z,1.89
2018-03-08T02:41:31.643Z,1.95
2018-03-08T02:43:59.196Z,2.01
2018-03-08T02:46:26.679Z,1.97
2018-03-08T02:48:54.205Z,1.96
2018-03-08T02:51:21.671Z,1.71
2018-03-08T02:53:49.131Z,1.75
2018-03-08T02:56:16.595Z,1.69
2018-03-08T02:58:44.051Z,1.62
2018-03-08T03:01:11.529Z,1.76
2018-03-08T03:03:38.982Z,1.78
2018-03-08T03:06:06.454Z,1.87
2018-03-08T03:08:33.906Z,1.70
2018-03-08T03:11:01.373Z,1.74
2018-03-08T03:13:28.886Z,1.86
2018-03-08T03:15:56.353Z,1.75
2018-03-08T03:18:23.889Z,1.81
2018-03-08T03:20:51.348Z,1.96
2018-03-08T03:23:18.806Z,1.92
2018-03-08T03:25:46.281Z,2.03
2018-03-08T03:28:13.818Z,2.09
2018-03-08T03:30:41.295Z,1.97
2018-03-08T03:33:08.757Z,1.84
2018-03-08T03:35:36.235Z,1.75
2018-03-08T03:38:03.741Z,1.74
2018-03-08T03:40:31.206Z,1.85
2018-03-08T03:42:58.669Z,1.81
2018-03-08T03:45:26.134Z,2.00
2018-03-08T03:47:53.584Z,2.02
2018-03-08T03:50:21.053Z,2.02
2018-03-08T03:52:48.500Z,1.99
2018-03-08T03:55:15.974Z,2.01
2018-03-08T03:57:43.514Z,2.02
2018-03-08T04:00:10.985Z,1.99
2018-03-08T04:02:38.437Z,2.03
2018-03-08T04:05:05.981Z,2.03
2018-03-08T04:07:34.423Z,2.04
2018-03-08T04:10:01.889Z,1.87
2018-03-08T04:12:29.336Z,1.84
2018-03-08T04:14:56.840Z,1.76
2018-03-08T04:17:24.301Z,1.72
2018-03-08T04:19:51.757Z,1.75
2018-03-08T04:22:20.327Z,1.80
2018-03-08T04:24:47.794Z,1.96
2018-03-08T04:27:15.249Z,2.00
2018-03-08T04:29:43.052Z,1.74
2018-03-08T04:32:10.566Z,1.67
2018-03-08T04:34:38.929Z,1.79
2018-03-08T04:37:07.386Z,1.84
2018-03-08T04:39:34.877Z,1.88
2018-03-08T04:42:02.333Z,1.93
2018-03-08T04:44:29.889Z,1.87
2018-03-08T04:46:57.350Z,1.76
2018-03-08T04:49:24.822Z,1.68
2018-03-08T04:51:52.284Z,1.78
2018-03-08T04:54:19.867Z,1.80
2018-03-08T04:56:47.281Z,1.86
2018-03-08T04:59:14.756Z,1.94
2018-03-08T05:01:42.289Z,1.94
2018-03-08T05:04:09.753Z,1.98
2018-03-08T05:06:38.234Z,1.94
2018-03-08T05:09:05.702Z,2.02
2018-03-08T05:11:33.153Z,2.05
2018-03-08T05:14:00.621Z,2.02
2018-03-08T05:16:28.095Z,1.98
2018-03-08T05:18:55.565Z,2.01
2018-03-08T05:21:23.027Z,1.97
2018-03-08T05:23:50.502Z,2.07
2018-03-08T05:26:18.914Z,1.94
2018-03-08T05:28:46.364Z,1.92
2018-03-08T05:31:13.923Z,1.91
2018-03-08T05:33:41.376Z,1.85
2018-03-08T05:36:08.841Z,1.88
2018-03-08T05:38:36.510Z,1.89
2018-03-08T05:41:04.960Z,1.94
2018-03-08T05:43:32.447Z,1.96
2018-03-08T05:45:59.923Z,2.03
2018-03-08T05:48:28.374Z,2.01
2018-03-08T05:50:55.879Z,2.11
2018-03-08T05:53:24.341Z,1.90
2018-03-08T05:55:51.872Z,2.01
2018-03-08T05:58:19.338Z,1.85
2018-03-08T06:00:47.853Z,1.72
2018-03-08T06:03:15.293Z,1.82
2018-03-08T06:05:42.753Z,1.78
2018-03-08T06:08:11.185Z,1.74
2018-03-08T06:10:38.640Z,1.89
2018-03-08T06:13:06.105Z,1.89
2018-03-08T06:15:33.640Z,1.88
2018-03-08T06:18:01.122Z,1.95
2018-03-08T06:20:28.580Z,1.91
2018-03-08T06:22:56.140Z,1.98
2018-03-08T06:25:23.596Z,1.85
2018-03-08T06:27:51.045Z,1.96
2018-03-08T06:30:18.509Z,2.09
2018-03-08T06:32:46.074Z,2.14
2018-03-08T06:35:13.546Z,2.01
2018-03-08T06:37:41.045Z,2.20
2018-03-08T06:40:08.553Z,2.17
2018-03-08T06:42:36.008Z,2.24
2018-03-08T06:45:04.478Z,2.14
2018-03-08T06:47:32.041Z,2.12
2018-03-08T06:49:59.521Z,2.18
2018-03-08T06:52:27.064Z,2.31
2018-03-08T06:54:54.545Z,2.24
2018-03-08T06:57:22.002Z,2.07
2018-03-08T06:59:49.469Z,2.09
2018-03-08T07:02:17.021Z,2.05
2018-03-08T07:04:44.495Z,2.18
2018-03-08T07:07:12.907Z,2.07
2018-03-08T07:09:40.473Z,2.22
2018-03-08T07:12:07.956Z,2.18
2018-03-08T07:14:36.438Z,2.34
2018-03-08T07:17:03.885Z,2.45
2018-03-08T07:19:31.362Z,2.37
2018-03-08T07:21:59.801Z,2.25
2018-03-08T07:24:27.278Z,2.40
2018-03-08T07:26:54.740Z,2.36
2018-03-08T07:29:22.205Z,2.54
2018-03-08T07:31:49.653Z,2.69
2018-03-08T07:34:18.140Z,2.40
2018-03-08T07:36:45.591Z,2.40
2018-03-08T07:39:13.161Z,2.47
2018-03-08T07:41:40.713Z,2.49
2018-03-08T07:44:08.181Z,2.62
2018-03-08T07:46:35.633Z,2.68
2018-03-08T07:49:03.106Z,2.77
2018-03-08T07:51:30.568Z,2.71
2018-03-08T07:53:58.044Z,2.50
2018-03-08T07:56:25.501Z,2.55
2018-03-08T07:58:53.926Z,2.76
2018-03-08T08:01:22.389Z,2.70
2018-03-08T08:03:49.861Z,2.66
2018-03-08T08:06:29.033Z,2.66
2018-03-08T08:09:08.342Z,2.77
2018-03-08T08:11:35.797Z,2.79
2018-03-08T08:14:05.191Z,2.59
2018-03-08T08:16:32.659Z,2.63
2018-03-08T08:19:00.133Z,2.64
2018-03-08T08:21:27.582Z,2.79
2018-03-08T08:23:55.048Z,2.71
2018-03-08T08:26:23.480Z,2.75
2018-03-08T08:28:50.963Z,2.41
2018-03-08T08:31:19.406Z,2.42
2018-03-08T08:33:46.866Z,2.42
2018-03-08T08:36:16.261Z,2.52
2018-03-08T08:38:43.718Z,2.33
2018-03-08T08:41:12.141Z,2.26
2018-03-08T08:43:39.598Z,2.29
2018-03-08T08:46:07.072Z,2.38
2018-03-08T08:48:34.574Z,2.29
2018-03-08T08:51:02.073Z,2.20
2018-03-08T08:53:29.532Z,2.56
2018-03-08T08:55:57.001Z,2.51
2018-03-08T08:58:24.458Z,2.53
2018-03-08T09:00:51.926Z,2.30
2018-03-08T09:03:19.373Z,2.21
2018-03-08T09:05:46.842Z,2.43
2018-03-08T09:08:14.473Z,2.49
2018-03-08T09:10:41.945Z,2.27
2018-03-08T09:13:09.403Z,2.38
2018-03-08T09:15:36.868Z,2.44
2018-03-08T09:18:05.237Z,2.54
2018-03-08T09:20:32.792Z,2.67
2018-03-08T09:23:00.242Z,2.82
2018-03-08T09:25:27.710Z,2.67
2018-03-08T09:27:55.157Z,2.76
2018-03-08T09:30:22.634Z,2.93
2018-03-08T09:32:50.089Z,2.87
2018-03-08T09:35:17.565Z,2.91
2018-03-08T09:37:45.087Z,2.89
2018-03-08T09:40:12.554Z,3.05
2018-03-08T09:42:41.014Z,3.15
2018-03-08T09:45:08.492Z,3.20
2018-03-08T09:47:35.946Z,3.57
2018-03-08T09:50:03.462Z,3.92
2018-03-08T09:52:30.912Z,3.76
2018-03-08T09:54:58.417Z,4.09
2018-03-08T09:57:25.880Z,4.44
2018-03-08T09:59:53.413Z,4.16
2018-03-08T10:02:20.970Z,4.24
2018-03-08T10:04:48.431Z,4.28
2018-03-08T10:07:15.884Z,3.92
2018-03-08T10:09:43.376Z,3.92
2018-03-08T10:12:10.825Z,4.01
2018-03-08T10:14:38.313Z,4.14
2018-03-08T10:17:05.832Z,4.29
2018-03-08T10:19:33.340Z,4.29
2018-03-08T10:22:00.791Z,4.17
2018-03-08T10:24:28.260Z,4.35
2018-03-08T10:26:55.701Z,4.46
2018-03-08T10:29:23.180Z,4.38
2018-03-08T10:31:50.668Z,4.27
2018-03-08T10:34:18.137Z,4.16
2018-03-08T10:36:45.698Z,4.30
2018-03-08T10:44:08.205Z,4.49
2018-03-08T10:46:35.654Z,4.59
2018-03-08T10:49:03.134Z,4.61
2018-03-08T10:51:30.591Z,4.72
2018-03-08T10:54:00.081Z,4.73
2018-03-08T10:56:27.581Z,4.65
2018-03-08T10:58:55.028Z,4.84
2018-03-08T11:01:26.389Z,4.98
2018-03-08T11:03:55.588Z,4.72
2018-03-08T11:06:34.797Z,4.79
2018-03-08T11:09:02.261Z,4.71
2018-03-08T11:11:29.729Z,4.69
2018-03-08T11:13:57.254Z,4.81
2018-03-08T11:16:24.742Z,4.82
2018-03-08T11:18:54.219Z,4.89
2018-03-08T11:21:21.722Z,4.86
2018-03-08T11:23:51.166Z,4.67
2018-03-08T11:26:18.733Z,4.56
2018-03-08T11:28:49.971Z,4.71
2018-03-08T11:31:17.438Z,4.72
2018-03-08T11:33:44.931Z,4.72
2018-03-08T11:36:12.444Z,4.76
2018-03-08T11:38:39.898Z,5.06
2018-03-08T11:41:07.365Z,4.71
2018-03-08T11:43:34.829Z,4.69
2018-03-08T11:46:03.290Z,4.67
2018-03-08T11:48:30.798Z,4.72
2018-03-08T11:50:58.277Z,4.83
2018-03-08T11:53:26.675Z,4.83
2018-03-08T11:55:54.190Z,4.90
2018-03-08T11:58:21.710Z,5.04
2018-03-08T12:00:49.178Z,4.99
2018-03-08T12:03:17.627Z,5.07
2018-03-08T12:05:45.085Z,5.35
2018-03-08T12:08:12.552Z,5.40
2018-03-08T12:10:40.995Z,5.16
2018-03-08T12:13:09.393Z,5.13
2018-03-08T12:15:40.757Z,5.21
2018-03-08T12:18:08.225Z,5.46
2018-03-08T12:20:35.759Z,5.41
2018-03-08T12:23:03.288Z,5.58
2018-03-08T12:25:30.855Z,5.89
2018-03-08T12:27:58.367Z,5.93
2018-03-08T12:30:26.813Z,5.88
2018-03-08T12:32:54.283Z,6.35
2018-03-08T12:35:21.725Z,6.24
2018-03-08T12:37:49.189Z,6.45
2018-03-08T12:40:16.786Z,6.36
2018-03-08T12:42:44.289Z,6.43
2018-03-08T12:45:12.723Z,6.43
2018-03-08T12:47:40.180Z,7.09
2018-03-08T12:50:07.825Z,7.10
2018-03-08T12:52:35.375Z,6.47
2018-03-08T12:55:02.846Z,6.75
2018-03-08T12:57:30.305Z,6.88
2018-03-08T12:59:57.822Z,7.10
2018-03-08T13:02:25.319Z,7.23
2018-03-08T13:04:52.792Z,7.90
2018-03-08T13:07:21.264Z,7.88
2018-03-08T13:09:48.710Z,7.25
2018-03-08T13:12:18.145Z,7.24
2018-03-08T13:14:45.614Z,7.48
2018-03-08T13:17:13.186Z,8.52
2018-03-08T13:19:40.610Z,8.94
2018-03-08T13:22:09.046Z,7.91
2018-03-08T13:24:36.517Z,8.45
2018-03-08T13:27:05.162Z,7.86
2018-03-08T13:29:32.665Z,7.47
2018-03-08T13:32:01.126Z,7.91
2018-03-08T13:34:29.599Z,7.84
2018-03-08T13:36:58.004Z,10.04
2018-03-08T13:39:26.479Z,10.53
2018-03-08T13:41:53.942Z,10.46
2018-03-08T13:44:25.069Z,9.18
2018-03-08T13:46:53.546Z,10.13
2018-03-08T13:49:33.897Z,8.82
2018-03-08T13:52:01.389Z,9.20
2018-03-08T13:54:28.846Z,9.58
2018-03-08T13:56:58.249Z,9.61
2018-03-08T13:59:26.693Z,10.03
2018-03-08T14:01:54.189Z,11.46
2018-03-08T14:04:22.547Z,10.81
2018-03-08T14:06:51.005Z,9.76
2018-03-08T14:09:18.577Z,10.18
2018-03-08T14:11:46.136Z,10.59
2018-03-08T14:14:13.609Z,9.93
2018-03-08T14:16:41.077Z,10.21
2018-03-08T14:19:08.521Z,9.96
2018-03-08T14:21:35.994Z,9.87
2018-03-08T14:24:03.449Z,10.97
2018-03-08T14:26:30.917Z,11.24
2018-03-08T14:28:58.372Z,11.34
2018-03-08T14:31:25.856Z,12.62
2018-03-08T14:33:54.227Z,12.47
2018-03-08T14:36:21.693Z,11.30
2018-03-08T14:38:52.565Z,12.36
2018-03-08T14:41:20.038Z,13.85
2018-03-08T14:43:47.488Z,14.45
2018-03-08T14:46:14.969Z,13.88
2018-03-08T14:48:43.422Z,13.11
2018-03-08T14:51:11.086Z,13.37
2018-03-08T14:53:40.586Z,12.84
2018-03-08T14:56:08.141Z,12.48
2018-03-08T14:58:35.612Z,13.81
2018-03-08T15:01:03.090Z,15.37
2018-03-08T15:03:30.585Z,18.44
2018-03-08T15:05:58.034Z,15.96
2018-03-08T15:08:26.436Z,15.79
2018-03-08T15:10:53.893Z,15.89
2018-03-08T15:13:22.261Z,14.22
2018-03-08T15:15:49.709Z,16.66
2018-03-08T15:18:17.189Z,17.18
2018-03-08T15:20:45.645Z,17.77
2018-03-08T15:23:15.070Z,15.04
2018-03-08T15:25:43.541Z,13.86
2018-03-08T15:28:11.927Z,13.60
2018-03-08T15:30:39.390Z,11.14
2018-03-08T15:33:06.857Z,9.40
2018-03-08T15:35:34.306Z,8.98
2018-03-08T15:38:01.781Z,8.19
2018-03-08T15:40:29.244Z,8.25
2018-03-08T15:42:56.714Z,8.00
2018-03-08T15:45:25.070Z,7.87
2018-03-08T15:47:52.622Z,7.57
2018-03-08T15:50:20.117Z,7.46
2018-03-08T15:52:47.554Z,7.56
2018-03-08T15:55:15.989Z,7.50
2018-03-08T15:57:43.565Z,7.44
2018-03-08T16:00:11.015Z,7.44
2018-03-08T16:02:38.477Z,7.37
2018-03-08T16:05:05.938Z,7.40
2018-03-08T16:10:36.367Z,7.35
2018-03-08T16:13:03.966Z,7.31
2018-03-08T16:15:31.434Z,7.43
2018-03-08T16:17:58.911Z,7.40
2018-03-08T16:20:26.364Z,7.25
2018-03-08T16:22:53.840Z,7.44
2018-03-08T16:25:21.316Z,7.25
2018-03-08T16:27:48.786Z,7.30
2018-03-08T16:30:16.261Z,7.18
2018-03-08T16:32:43.803Z,7.17
2018-03-08T16:35:11.320Z,7.22
2018-03-08T16:37:39.707Z,7.00
2018-03-08T16:40:07.195Z,6.98
2018-03-08T16:42:34.651Z,6.87
2018-03-08T16:45:02.118Z,6.81
2018-03-08T16:47:29.585Z,6.78
2018-03-08T16:49:57.126Z,6.83
2018-03-08T16:52:24.572Z,6.81
2018-03-08T16:54:52.120Z,6.57
2018-03-08T16:57:19.578Z,6.67
2018-03-08T16:59:47.053Z,6.39
2018-03-08T17:02:14.502Z,6.47
2018-03-08T17:04:41.969Z,6.41
2018-03-08T17:07:09.439Z,6.34
2018-03-08T17:09:37.045Z,6.28
2018-03-08T17:12:05.443Z,6.20
2018-03-08T17:14:33.863Z,6.26
2018-03-08T17:17:02.301Z,6.10
2018-03-08T17:19:29.786Z,6.16
2018-03-08T17:21:59.697Z,6.18
2018-03-08T17:24:27.214Z,6.12
2018-03-08T17:26:54.769Z,6.05
2018-03-08T17:29:22.245Z,6.04
2018-03-08T17:31:49.698Z,6.09
2018-03-08T17:34:17.169Z,6.09
2018-03-08T17:36:44.627Z,6.11
2018-03-08T17:39:12.097Z,6.06
2018-03-08T17:41:39.550Z,6.05
2018-03-08T17:44:07.022Z,6.06
2018-03-08T17:46:35.413Z,6.07
2018-03-08T17:49:02.946Z,6.08
2018-03-08T17:51:30.431Z,5.92
2018-03-08T17:53:57.912Z,5.83
2018-03-08T17:56:25.379Z,5.99
2018-03-08T17:58:53.844Z,5.80
2018-03-08T18:01:21.308Z,5.95
2018-03-08T18:03:48.768Z,5.92
2018-03-08T18:06:16.348Z,5.93
2018-03-08T18:08:43.838Z,5.77
2018-03-08T18:11:11.295Z,6.01
2018-03-08T18:13:38.768Z,5.79
2018-03-08T18:16:06.219Z,5.78
2018-03-08T18:18:33.753Z,5.66
2018-03-08T18:21:01.194Z,5.76
2018-03-08T18:23:28.666Z,5.64
2018-03-08T18:25:56.225Z,5.60
2018-03-08T18:28:23.896Z,5.63
2018-03-08T18:30:51.360Z,5.55
2018-03-08T18:33:18.838Z,5.58
2018-03-08T18:35:46.363Z,5.49
2018-03-08T18:38:13.833Z,5.33
2018-03-08T18:40:41.329Z,5.39
2018-03-08T18:43:08.789Z,5.42
2018-03-08T18:45:36.228Z,5.41
2018-03-08T18:48:03.778Z,5.38
2018-03-08T18:50:31.271Z,5.31
2018-03-08T18:52:58.814Z,5.23
2018-03-08T18:55:26.333Z,5.34
2018-03-08T18:57:53.829Z,5.24
2018-03-08T19:00:21.329Z,5.34
2018-03-08T19:02:49.180Z,5.49
2018-03-08T19:05:16.698Z,5.42
2018-03-08T19:07:44.218Z,5.51
2018-03-08T19:10:11.709Z,5.55
2018-03-08T19:12:40.113Z,5.62
2018-03-08T19:15:07.589Z,5.63
2018-03-08T19:17:35.106Z,5.75
2018-03-08T19:20:02.581Z,5.69
2018-03-08T19:22:31.970Z,5.59
2018-03-08T19:24:59.409Z,5.59
2018-03-08T19:27:26.869Z,5.53
2018-03-08T19:29:57.806Z,5.48
2018-03-08T19:32:25.310Z,5.55
2018-03-08T19:34:52.777Z,5.47
2018-03-08T19:37:20.233Z,5.72
2018-03-08T19:39:47.728Z,5.52
2018-03-08T19:42:15.206Z,5.53
2018-03-08T19:44:42.728Z,5.45
2018-03-08T19:47:10.153Z,5.49
2018-03-08T19:49:37.629Z,5.35
2018-03-08T19:52:05.093Z,5.38
2018-03-08T19:54:32.562Z,5.43
2018-03-08T19:57:00.020Z,5.52
2018-03-08T19:59:27.483Z,5.51
2018-03-08T20:01:54.939Z,5.45
2018-03-08T20:04:22.508Z,5.35
2018-03-08T20:06:49.984Z,5.21
2018-03-08T20:09:17.574Z,5.24
2018-03-08T20:11:45.989Z,5.17
2018-03-08T20:14:14.419Z,5.22
2018-03-08T20:16:41.874Z,5.18
2018-03-08T20:19:09.346Z,5.22
2018-03-08T20:21:36.829Z,5.22
2018-03-08T20:24:04.297Z,5.19
2018-03-08T20:26:31.745Z,5.22
2018-03-08T20:28:59.209Z,5.25
2018-03-08T20:31:27.598Z,5.29
2018-03-08T20:33:55.062Z,5.34
2018-03-08T20:36:22.505Z,5.30
2018-03-08T20:38:49.981Z,5.20
2018-03-08T20:41:17.426Z,5.12
2018-03-08T20:43:44.924Z,5.15
2018-03-08T20:46:12.397Z,4.84
2018-03-08T20:48:39.886Z,4.82
2018-03-08T20:51:08.266Z,4.89
2018-03-08T20:53:35.747Z,4.81
2018-03-08T20:56:03.196Z,4.78
2018-03-08T20:58:30.777Z,4.73
2018-03-08T21:00:58.250Z,4.72
2018-03-08T21:03:26.507Z,4.67
2018-03-08T21:05:54.217Z,4.79
2018-03-08T21:08:21.690Z,4.74
2018-03-08T21:10:49.136Z,4.58
2018-03-08T21:13:16.600Z,4.51
2018-03-08T21:15:44.148Z,4.42
2018-03-08T21:18:11.666Z,4.46
2018-03-08T21:20:39.130Z,4.49
2018-03-08T21:23:06.578Z,4.37
2018-03-08T21:25:34.122Z,4.43
2018-03-08T21:28:01.564Z,4.45
2018-03-08T21:30:29.027Z,4.27
2018-03-08T21:32:57.478Z,4.17
2018-03-08T21:35:24.962Z,4.16
2018-03-08T21:37:55.543Z,4.09
2018-03-08T21:40:23.002Z,4.02
2018-03-08T21:42:50.455Z,4.05
2018-03-08T21:45:17.913Z,4.03
2018-03-08T21:47:45.357Z,3.99
2018-03-08T21:50:12.817Z,3.92
2018-03-08T21:52:40.274Z,3.95
2018-03-08T21:55:07.773Z,3.86
2018-03-08T21:57:37.129Z,3.92
2018-03-08T22:00:04.600Z,3.91
2018-03-08T22:02:32.054Z,3.93
2018-03-08T22:04:59.512Z,4.08
2018-03-08T22:07:26.979Z,4.01
2018-03-08T22:09:54.450Z,4.05
2018-03-08T22:12:21.894Z,4.05
2018-03-08T22:14:49.406Z,4.14
2018-03-08T22:17:16.855Z,4.12
2018-03-08T22:19:44.796Z,4.18
2018-03-08T22:22:12.241Z,4.31
2018-03-08T22:24:39.701Z,4.24
2018-03-08T22:27:07.202Z,4.17
2018-03-08T22:29:34.668Z,4.11
2018-03-08T22:32:02.115Z,4.05
2018-03-08T22:34:29.670Z,4.05
2018-03-08T22:36:57.113Z,4.15
2018-03-08T22:39:24.574Z,4.15
2018-03-08T22:41:52.026Z,4.13
2018-03-08T22:44:19.493Z,4.22
2018-03-08T22:46:46.937Z,4.28
2018-03-08T22:49:14.504Z,4.37
2018-03-08T22:51:41.964Z,4.48
2018-03-08T22:54:09.409Z,4.35
2018-03-08T22:56:36.868Z,4.24
2018-03-08T22:59:04.308Z,4.24
2018-03-08T23:04:38.757Z,4.34
2018-03-08T23:07:06.209Z,4.27
2018-03-08T23:09:33.654Z,4.33
2018-03-08T23:12:01.121Z,4.27
2018-03-08T23:14:28.569Z,4.21
2018-03-08T23:16:56.028Z,4.23
2018-03-08T23:19:23.486Z,4.23
2018-03-08T23:21:50.956Z,4.40
2018-03-08T23:24:18.400Z,4.29
2018-03-08T23:26:45.903Z,4.26
2018-03-08T23:29:14.373Z,4.40
2018-03-08T23:31:41.838Z,4.47
2018-03-08T23:34:09.293Z,4.52
2018-03-08T23:36:36.760Z,4.45
2018-03-08T23:39:04.217Z,4.41
2018-03-08T23:41:31.689Z,4.29
2018-03-08T23:43:59.173Z,4.26
2018-03-08T23:46:26.624Z,4.24
2018-03-08T23:48:54.125Z,4.22
2018-03-08T23:51:21.585Z,4.22
2018-03-08T23:53:49.044Z,4.24
2018-03-08T23:56:16.513Z,4.30
2018-03-08T23:58:43.980Z,4.17
